Time;durP1;ratioP1;P1;durP2;ratioP2;P2;SDS_P1;SDS_P2;PMS_P1;PMS_P2;Temp;Humidity;BMP_temperature;BMP_pressure;BME280_temperature;BME280_humidity;BME280_pressure;Samples;Min_cycle;Max_cycle;Signal;HPM_P1;HPM_P2
2023/08/14 06:03:57;;;;;;;1999.90;999.90;;;18.80;99.90;;;;;;5106327;27;20720;-71
2023/08/14 06:06:23;;;;;;;1999.90;999.90;;;18.30;99.90;;;;;;5087203;28;20082;-72
2023/08/14 06:08:49;;;;;;;1999.90;999.90;;;18.30;99.90;;;;;;5089392;28;20479;-72
2023/08/14 06:11:14;;;;;;;1999.90;999.90;;;18.30;99.90;;;;;;5094598;28;20038;-72
2023/08/14 06:13:40;;;;;;;1999.90;999.90;;;18.30;99.90;;;;;;5089053;28;20024;-77
2023/08/14 06:16:06;;;;;;;1999.90;999.90;;;18.30;99.90;;;;;;5085835;28;20056;-78
2023/08/14 06:18:31;;;;;;;1999.90;999.90;;;18.30;99.90;;;;;;5087089;28;20471;-72
2023/08/14 06:20:57;;;;;;;1999.90;999.90;;;18.40;99.90;;;;;;5093599;28;20060;-72
2023/08/14 06:23:22;;;;;;;1999.90;999.90;;;18.40;99.90;;;;;;5096115;28;20525;-72
2023/08/14 06:25:48;;;;;;;1999.90;999.90;;;18.50;99.90;;;;;;5086824;28;20039;-72
2023/08/14 06:28:14;;;;;;;1999.90;999.90;;;18.50;99.90;;;;;;5095771;28;20505;-72
2023/08/14 06:30:39;;;;;;;1999.90;999.90;;;18.50;99.90;;;;;;5088614;28;20021;-72
2023/08/14 06:33:05;;;;;;;1999.90;999.90;;;18.60;99.90;;;;;;5091055;28;20024;-72
2023/08/14 06:35:30;;;;;;;1999.90;999.90;;;18.60;99.90;;;;;;5090830;28;20379;-72
2023/08/14 06:37:56;;;;;;;1999.90;999.90;;;18.60;99.90;;;;;;5092529;28;20024;-71
2023/08/14 06:40:22;;;;;;;1999.90;999.90;;;18.60;99.90;;;;;;5090595;28;20420;-72
2023/08/14 06:42:47;;;;;;;1999.90;999.90;;;18.70;99.90;;;;;;5088908;28;20487;-71
2023/08/14 06:45:13;;;;;;;1999.90;999.90;;;18.60;99.90;;;;;;5088842;28;20024;-78
2023/08/14 06:47:44;;;;;;;1999.90;999.90;;;18.60;99.90;;;;;;5088862;28;20032;-72
2023/08/14 06:50:11;;;;;;;1999.90;999.90;;;18.60;99.90;;;;;;5093630;28;20025;-72
2023/08/14 06:52:37;;;;;;;1999.90;999.90;;;18.60;99.90;;;;;;5085677;28;20036;-71
2023/08/14 06:55:03;;;;;;;1999.90;999.90;;;18.60;99.90;;;;;;5098281;28;20078;-78
2023/08/14 06:57:28;;;;;;;1999.90;999.90;;;18.70;99.90;;;;;;5088477;28;20037;-72
2023/08/14 06:59:54;;;;;;;1999.90;999.90;;;18.70;99.90;;;;;;5088373;28;20043;-71
2023/08/14 07:02:19;;;;;;;1999.90;999.90;;;18.80;99.90;;;;;;5088071;28;20135;-72
2023/08/14 07:04:45;;;;;;;1999.90;999.90;;;18.80;99.90;;;;;;5090781;28;20455;-75
2023/08/14 07:07:10;;;;;;;1999.90;999.90;;;18.80;99.90;;;;;;5116147;28;20008;-78
2023/08/14 07:09:36;;;;;;;1999.90;999.90;;;18.80;99.90;;;;;;5084261;28;20020;-72
2023/08/14 07:12:02;;;;;;;1999.90;999.90;;;18.90;99.90;;;;;;5108070;28;20134;-72
2023/08/14 07:14:28;;;;;;;1999.90;999.90;;;19.00;99.90;;;;;;5082080;28;20012;-72
2023/08/14 07:16:53;;;;;;;1999.90;999.90;;;19.00;99.90;;;;;;5071919;28;20047;-72
2023/08/14 07:19:19;;;;;;;1999.90;999.90;;;19.00;99.90;;;;;;5075546;28;20073;-72
2023/08/14 07:21:45;;;;;;;1999.90;999.90;;;19.00;99.90;;;;;;5076354;28;20028;-72
2023/08/14 07:24:12;;;;;;;1999.90;999.90;;;19.10;99.90;;;;;;5081075;28;20095;-72
2023/08/14 07:26:39;;;;;;;1999.90;999.90;;;19.10;99.90;;;;;;5079410;28;20025;-72
2023/08/14 07:29:04;;;;;;;1999.90;999.90;;;19.20;99.90;;;;;;5073211;28;20039;-72
2023/08/14 07:31:30;;;;;;;1999.90;999.90;;;19.20;99.90;;;;;;5073398;28;20527;-72
2023/08/14 07:33:55;;;;;;;1999.90;999.90;;;19.30;99.90;;;;;;5082136;28;20028;-72
2023/08/14 07:36:21;;;;;;;1999.90;999.90;;;19.40;99.90;;;;;;5073590;28;20108;-72
2023/08/14 07:38:47;;;;;;;1999.90;999.90;;;19.40;99.90;;;;;;5074281;28;20032;-72
2023/08/14 07:41:12;;;;;;;1999.90;999.90;;;19.40;99.90;;;;;;5073079;28;20078;-71
2023/08/14 07:43:38;;;;;;;1999.90;999.90;;;19.40;99.90;;;;;;5070991;28;20024;-72
2023/08/14 07:46:03;;;;;;;1999.90;999.90;;;19.30;99.90;;;;;;5066056;28;20530;-78
2023/08/14 07:48:29;;;;;;;1999.90;999.90;;;19.30;99.90;;;;;;5073460;28;20028;-78
2023/08/14 07:50:54;;;;;;;1999.90;999.90;;;19.40;99.90;;;;;;5073134;28;20047;-73
2023/08/14 07:53:20;;;;;;;1999.90;999.90;;;19.30;99.90;;;;;;5073039;28;20032;-72
2023/08/14 07:55:48;;;;;;;1999.90;999.90;;;19.30;99.90;;;;;;5073634;28;20029;-72
2023/08/14 07:58:14;;;;;;;1999.90;999.90;;;19.40;99.90;;;;;;5081895;28;20077;-78
2023/08/14 08:00:40;;;;;;;1999.90;999.90;;;19.50;99.90;;;;;;5078236;28;20029;-72
2023/08/14 08:03:05;;;;;;;1999.90;999.90;;;19.70;99.90;;;;;;5072226;28;20052;-72
2023/08/14 08:05:31;;;;;;;1999.90;999.90;;;19.80;99.90;;;;;;5072447;28;20073;-72
2023/08/14 08:07:57;;;;;;;1999.90;999.90;;;20.00;99.90;;;;;;5079517;28;20028;-72
2023/08/14 08:10:22;;;;;;;1999.90;999.90;;;20.20;99.90;;;;;;5074925;28;20055;-78
2023/08/14 08:12:48;;;;;;;1999.90;999.90;;;20.30;99.90;;;;;;5073134;28;20442;-72
2023/08/14 08:15:14;;;;;;;1999.90;999.90;;;20.60;99.90;;;;;;5072478;28;20509;-77
2023/08/14 08:17:39;;;;;;;1999.90;999.90;;;20.80;99.90;;;;;;5076867;28;20043;-72
2023/08/14 08:20:06;;;;;;;1999.90;999.90;;;21.00;99.90;;;;;;5073113;28;20060;-72
2023/08/14 08:22:32;;;;;;;1999.90;999.90;;;21.20;99.90;;;;;;5073500;28;20036;-77
2023/08/14 08:24:57;;;;;;;1999.90;999.90;;;21.30;99.90;;;;;;5068298;28;20437;-78
2023/08/14 08:27:23;;;;;;;1999.90;999.90;;;21.20;99.90;;;;;;5069444;28;20025;-78
2023/08/14 08:29:48;;;;;;;1999.90;999.90;;;21.20;99.90;;;;;;5072498;28;20219;-72
2023/08/14 08:32:14;;;;;;;1999.90;999.90;;;21.20;99.90;;;;;;5070748;28;20024;-72
2023/08/14 08:34:39;;;;;;;1999.90;999.90;;;21.20;99.90;;;;;;5072037;28;20032;-72
2023/08/14 08:37:06;;;;;;;1999.90;999.90;;;21.10;99.90;;;;;;5071933;28;20028;-78
2023/08/14 08:39:31;;;;;;;1999.90;999.90;;;21.10;99.90;;;;;;5077543;28;20042;-72
2023/08/14 08:41:57;;;;;;;1999.90;999.90;;;21.20;99.90;;;;;;5087397;28;20077;-72
2023/08/14 08:44:30;;;;;;;1999.90;999.90;;;21.20;99.90;;;;;;5073172;28;20020;-72
2023/08/14 08:47:07;;;;;;;1999.90;999.90;;;21.20;99.90;;;;;;5070028;28;20111;-72
2023/08/14 08:49:34;;;;;;;1999.90;999.90;;;21.20;99.90;;;;;;5074662;28;20012;-72
2023/08/14 08:52:04;;;;;;;1999.90;999.90;;;21.20;99.90;;;;;;5076179;28;20525;-72
2023/08/14 08:54:31;;;;;;;1999.90;999.90;;;21.10;99.90;;;;;;5071923;28;20575;-72
2023/08/14 08:56:57;;;;;;;1999.90;999.90;;;21.10;99.90;;;;;;5072200;28;20032;-72
2023/08/14 08:59:23;;;;;;;1999.90;999.90;;;21.10;99.90;;;;;;5076680;28;20036;-72
2023/08/14 09:01:49;;;;;;;1999.90;999.90;;;21.30;99.90;;;;;;5075130;28;20491;-78
2023/08/14 09:04:15;;;;;;;1999.90;999.90;;;21.50;99.90;;;;;;5066710;28;20034;-78
2023/08/14 09:06:41;;;;;;;1999.90;999.90;;;21.70;99.90;;;;;;5076335;28;20107;-72
2023/08/14 09:09:09;;;;;;;1999.90;999.90;;;21.90;99.90;;;;;;5077395;28;20115;-72
2023/08/14 09:11:34;;;;;;;1999.90;999.90;;;21.90;99.90;;;;;;5073637;28;20442;-72
2023/08/14 09:14:00;;;;;;;1999.90;999.90;;;22.00;99.90;;;;;;5071016;28;20070;-72
2023/08/14 09:16:27;;;;;;;1999.90;999.90;;;22.20;99.90;;;;;;5075887;28;20111;-72
2023/08/14 09:18:57;;;;;;;1999.90;999.90;;;22.30;99.90;;;;;;5072785;28;20471;-72
2023/08/14 09:21:24;;;;;;;1999.90;999.90;;;22.30;99.90;;;;;;5077523;28;20490;-79
2023/08/14 09:23:50;;;;;;;1999.90;999.90;;;22.20;99.90;;;;;;5070672;28;20040;-72
2023/08/14 09:26:15;;;;;;;1999.90;999.90;;;22.10;99.90;;;;;;5071409;28;20052;-72
2023/08/14 09:28:41;;;;;;;1999.90;999.90;;;22.10;99.90;;;;;;5071053;28;20059;-78
2023/08/14 09:31:12;;;;;;;1999.90;999.90;;;22.00;99.90;;;;;;5070294;28;20486;-79
2023/08/14 09:33:42;;;;;;;1999.90;999.90;;;21.90;99.90;;;;;;5071235;28;20467;-72
2023/08/14 09:36:09;;;;;;;1999.90;999.90;;;21.90;99.90;;;;;;5072129;28;20103;-71
2023/08/14 09:38:35;;;;;;;1999.90;999.90;;;22.00;99.90;;;;;;5075239;28;20107;-72
2023/08/14 09:41:02;;;;;;;1999.90;999.90;;;22.30;99.90;;;;;;5075606;28;20032;-79
2023/08/14 09:43:29;;;;;;;1999.90;999.90;;;22.40;99.90;;;;;;5071277;28;20029;-72
2023/08/14 09:46:00;;;;;;;1999.90;999.90;;;22.30;99.90;;;;;;5069604;28;20404;-72
2023/08/14 09:48:47;;;;;;;1999.90;999.90;;;22.50;99.90;;;;;;5069568;28;20415;-72
2023/08/14 09:51:14;;;;;;;1999.90;999.90;;;22.60;99.90;;;;;;5072705;28;20051;-72
2023/08/14 09:53:52;;;;;;;1999.90;999.90;;;22.80;99.90;;;;;;5068004;28;20017;-72
2023/08/14 09:56:19;;;;;;;1999.90;999.90;;;22.80;99.90;;;;;;5069551;28;20028;-72
2023/08/14 09:58:48;;;;;;;1999.90;999.90;;;22.60;99.90;;;;;;5068846;28;20034;-72
2023/08/14 10:01:15;;;;;;;1999.90;999.90;;;22.80;99.90;;;;;;5070838;28;20036;-72
2023/08/14 10:03:42;;;;;;;1999.90;999.90;;;23.00;99.90;;;;;;5073000;28;20136;-72
2023/08/14 10:06:10;;;;;;;1999.90;999.90;;;23.30;99.90;;;;;;5077555;28;20025;-73
2023/08/14 10:08:38;;;;;;;1999.90;999.90;;;23.50;99.90;;;;;;5079817;28;20052;-79
2023/08/14 10:11:05;;;;;;;1999.90;999.90;;;23.60;99.90;;;;;;5073339;28;20028;-73
2023/08/14 10:13:38;;;;;;;1999.90;999.90;;;23.80;99.90;;;;;;5069695;28;20033;-73
2023/08/14 10:16:09;;;;;;;1999.90;999.90;;;23.80;99.90;;;;;;5067542;28;20598;-73
2023/08/14 10:18:38;;;;;;;1999.90;999.90;;;23.80;99.90;;;;;;5080367;28;20043;-73
2023/08/14 10:21:09;;;;;;;1999.90;999.90;;;23.90;99.90;;;;;;5072071;28;20021;-73
2023/08/14 10:23:36;;;;;;;1999.90;999.90;;;23.70;99.90;;;;;;5073826;28;20479;-80
2023/08/14 10:26:02;;;;;;;1999.90;999.90;;;23.70;99.90;;;;;;5079610;28;20127;-73
2023/08/14 10:28:29;;;;;;;1999.90;999.90;;;23.90;99.90;;;;;;5069280;28;20398;-73
2023/08/14 10:30:55;;;;;;;1999.90;999.90;;;23.90;99.90;;;;;;5071223;28;20119;-72
2023/08/14 10:33:21;;;;;;;1999.90;999.90;;;24.00;99.90;;;;;;5070153;28;20096;-72
2023/08/14 10:35:51;;;;;;;1999.90;999.90;;;24.00;99.90;;;;;;5088541;28;20139;-73
2023/08/14 10:38:18;;;;;;;1999.90;999.90;;;23.80;99.90;;;;;;5072824;28;20028;-74
2023/08/14 10:40:52;;;;;;;1999.90;999.90;;;24.00;99.90;;;;;;5071702;28;20522;-72
2023/08/14 10:43:17;;;;;;;1999.90;999.90;;;24.00;99.90;;;;;;5077354;28;20036;-73
2023/08/14 10:45:43;;;;;;;1999.90;999.90;;;24.00;99.90;;;;;;5069970;28;20031;-73
2023/08/14 10:48:09;;;;;;;1999.90;999.90;;;23.80;99.90;;;;;;5074988;28;20023;-77
2023/08/14 10:50:35;;;;;;;1999.90;999.90;;;23.60;99.90;;;;;;5076803;28;20036;-79
2023/08/14 10:53:04;;;;;;;1999.90;999.90;;;23.60;99.90;;;;;;5075382;28;20036;-73
2023/08/14 10:55:39;;;;;;;1999.90;999.90;;;23.50;99.90;;;;;;5072924;28;20411;-73
2023/08/14 10:58:35;;;;;;;1999.90;999.90;;;23.50;99.90;;;;;;5075736;28;20028;-73
2023/08/14 11:01:07;;;;;;;1999.90;999.90;;;23.60;99.90;;;;;;5075109;28;20123;-72
2023/08/14 11:03:34;;;;;;;1999.90;999.90;;;23.80;99.90;;;;;;5073781;28;20079;-73
2023/08/14 11:06:00;;;;;;;1999.90;999.90;;;23.80;99.90;;;;;;5069250;28;20032;-73
2023/08/14 11:08:29;;;;;;;1999.90;999.90;;;23.70;99.90;;;;;;5079705;28;20032;-73
2023/08/14 11:10:56;;;;;;;1999.90;999.90;;;23.60;99.90;;;;;;5073653;28;20020;-73
2023/08/14 11:13:22;;;;;;;1999.90;999.90;;;23.40;99.90;;;;;;5080312;28;20028;-79
2023/08/14 11:15:48;;;;;;;1999.90;999.90;;;23.30;99.90;;;;;;5071732;28;20161;-79
2023/08/14 11:18:15;;;;;;;1999.90;999.90;;;23.30;99.90;;;;;;5080872;28;20032;-73
2023/08/14 11:20:42;;;;;;;1999.90;999.90;;;23.30;99.90;;;;;;5071175;28;20028;-73
2023/08/14 11:23:09;;;;;;;1999.90;999.90;;;23.20;99.90;;;;;;5076667;28;20024;-72
2023/08/14 11:25:35;;;;;;;1999.90;999.90;;;23.20;99.90;;;;;;5073493;28;20035;-72
2023/08/14 11:28:01;;;;;;;1999.90;999.90;;;23.20;99.90;;;;;;5073460;28;20555;-79
2023/08/14 11:30:32;;;;;;;1999.90;999.90;;;22.90;99.90;;;;;;5072717;28;20021;-70
2023/08/14 11:32:58;;;;;;;1999.90;999.90;;;22.90;99.90;;;;;;5073156;28;20471;-70
2023/08/14 11:35:26;;;;;;;1999.90;999.90;;;22.70;99.90;;;;;;5080806;28;20024;-71
2023/08/14 11:37:51;;;;;;;1999.90;999.90;;;22.60;99.90;;;;;;5068747;28;20099;-78
2023/08/14 11:40:17;;;;;;;1999.90;999.90;;;22.70;99.90;;;;;;5074885;28;20123;-72
2023/08/14 11:42:43;;;;;;;1999.90;999.90;;;22.60;99.90;;;;;;5076709;28;20035;-72
2023/08/14 11:45:10;;;;;;;1999.90;999.90;;;22.50;99.90;;;;;;5073356;28;20032;-71
2023/08/14 11:47:38;;;;;;;1999.90;999.90;;;22.40;99.90;;;;;;5072245;28;20046;-72
2023/08/14 11:50:04;;;;;;;1999.90;999.90;;;22.30;99.90;;;;;;5069917;28;20024;-72
2023/08/14 11:52:30;;;;;;;1999.90;999.90;;;22.10;99.90;;;;;;5071379;28;20028;-71
2023/08/14 11:54:56;;;;;;;1999.90;999.90;;;22.10;99.90;;;;;;5072108;28;20411;-72
2023/08/14 11:57:26;;;;;;;1999.90;999.90;;;22.20;99.90;;;;;;5073126;28;20016;-71
2023/08/14 11:59:54;;;;;;;1999.90;999.90;;;22.40;99.90;;;;;;5072556;28;20426;-72
2023/08/14 12:02:20;;;;;;;1999.90;999.90;;;22.50;99.90;;;;;;5072382;28;20079;-72
2023/08/14 12:04:56;;;;;;;1999.90;999.90;;;22.50;99.90;;;;;;5072186;28;20064;-78
2023/08/14 12:07:24;;;;;;;1999.90;999.90;;;22.40;99.90;;;;;;5071998;28;20027;-78
2023/08/14 12:09:51;;;;;;;1999.90;999.90;;;22.30;99.90;;;;;;5074303;28;20029;-71
2023/08/14 12:12:17;;;;;;;1999.90;999.90;;;22.30;99.90;;;;;;5072269;28;20074;-72
2023/08/14 12:14:48;;;;;;;1999.90;999.90;;;22.40;99.90;;;;;;5072194;28;20056;-72
2023/08/14 12:17:15;;;;;;;1999.90;999.90;;;22.50;99.90;;;;;;5076777;28;20115;-78
2023/08/14 12:19:42;;;;;;;1999.90;999.90;;;22.70;99.90;;;;;;5077788;28;20048;-77
2023/08/14 12:22:08;;;;;;;1999.90;999.90;;;22.70;99.90;;;;;;5076762;28;20079;-72
2023/08/14 12:24:42;;;;;;;1999.90;999.90;;;22.60;99.90;;;;;;5072262;28;20032;-72
2023/08/14 12:27:25;;;;;;;1999.90;999.90;;;22.60;99.90;;;;;;5072135;28;20028;-72
2023/08/14 12:29:52;;;;;;;1999.90;999.90;;;22.60;99.90;;;;;;5069701;28;20035;-72
2023/08/14 12:32:19;;;;;;;1999.90;999.90;;;22.50;99.90;;;;;;5067011;28;20021;-72
2023/08/14 12:34:45;;;;;;;1999.90;999.90;;;22.60;99.90;;;;;;5071539;28;20029;-72
2023/08/14 12:37:13;;;;;;;1999.90;999.90;;;22.70;99.90;;;;;;5076046;28;20035;-72
2023/08/14 12:39:39;;;;;;;1999.90;999.90;;;22.90;99.90;;;;;;5072384;28;20380;-77
2023/08/14 12:42:06;;;;;;;1999.90;999.90;;;23.00;99.90;;;;;;5072733;28;20028;-72
2023/08/14 12:44:32;;;;;;;1999.90;999.90;;;22.90;99.90;;;;;;5075302;28;20047;-72
2023/08/14 12:46:58;;;;;;;1999.90;999.90;;;22.90;99.90;;;;;;5073416;28;20085;-72
2023/08/14 12:49:24;;;;;;;1999.90;999.90;;;22.90;99.90;;;;;;5077055;28;20479;-72
2023/08/14 12:51:52;;;;;;;1999.90;999.90;;;23.00;99.90;;;;;;5072513;28;20035;-72
2023/08/14 12:54:19;;;;;;;1999.90;999.90;;;23.40;99.90;;;;;;5073891;28;20081;-72
2023/08/14 12:56:44;;;;;;;1999.90;999.90;;;23.80;99.90;;;;;;5073764;28;20089;-76
2023/08/14 12:59:10;;;;;;;1999.90;999.90;;;23.90;99.90;;;;;;5072728;28;20119;-72
2023/08/14 13:01:36;;;;;;;1999.90;999.90;;;24.20;99.90;;;;;;5072417;28;20476;-76
2023/08/14 13:04:02;;;;;;;1999.90;999.90;;;24.40;99.90;;;;;;5071001;28;20037;-72
2023/08/14 13:06:29;;;;;;;1999.90;999.90;;;24.60;99.90;;;;;;5073229;28;20433;-76
2023/08/14 13:08:54;;;;;;;1999.90;999.90;;;24.70;99.90;;;;;;5079731;28;20025;-77
2023/08/14 13:11:20;;;;;;;1999.90;999.90;;;24.80;99.90;;;;;;5076139;28;20024;-76
2023/08/14 13:13:46;;;;;;;1999.90;999.90;;;25.20;99.90;;;;;;5071918;28;20517;-72
2023/08/14 13:16:12;;;;;;;1999.90;999.90;;;25.20;99.90;;;;;;5070131;28;20087;-73
2023/08/14 13:18:37;;;;;;;1999.90;999.90;;;25.10;99.90;;;;;;5074098;28;20416;-72
2023/08/14 13:21:03;;;;;;;1999.90;999.90;;;25.00;99.90;;;;;;5072011;28;20065;-72
2023/08/14 13:23:29;;;;;;;1999.90;999.90;;;25.00;99.90;;;;;;5070625;28;20033;-76
2023/08/14 13:25:54;;;;;;;1999.90;999.90;;;25.10;99.90;;;;;;5071668;28;20094;-73
2023/08/14 13:28:20;;;;;;;1999.90;999.90;;;24.90;99.90;;;;;;5071538;28;20070;-72
2023/08/14 13:30:49;;;;;;;1999.90;999.90;;;25.00;99.90;;;;;;5071345;28;20037;-73
2023/08/14 13:33:15;;;;;;;1999.90;999.90;;;25.10;99.90;;;;;;5065837;28;20032;-73
2023/08/14 13:35:41;;;;;;;1999.90;999.90;;;25.30;99.90;;;;;;5071041;28;20028;-76
2023/08/14 13:38:07;;;;;;;1999.90;999.90;;;25.10;99.90;;;;;;5070942;28;20025;-76
2023/08/14 13:40:33;;;;;;;1999.90;999.90;;;24.70;99.90;;;;;;5071847;28;20031;-73
2023/08/14 13:42:59;;;;;;;1999.90;999.90;;;24.20;99.90;;;;;;5073072;28;20395;-76
2023/08/14 13:45:25;;;;;;;1999.90;999.90;;;23.80;99.90;;;;;;5060889;28;20025;-75
2023/08/14 13:47:52;;;;;;;1999.90;999.90;;;23.70;99.90;;;;;;5054272;28;20032;-75
2023/08/14 13:50:18;;;;;;;1999.90;999.90;;;23.70;99.90;;;;;;5069882;28;20092;-74
2023/08/14 13:52:44;;;;;;;1999.90;999.90;;;23.80;99.90;;;;;;5070322;28;20502;-72
2023/08/14 13:55:10;;;;;;;1999.90;999.90;;;24.00;99.90;;;;;;5071733;28;20108;-72
2023/08/14 13:57:35;;;;;;;1999.90;999.90;;;23.80;99.90;;;;;;5071555;28;20174;-72
2023/08/14 14:00:03;;;;;;;1999.90;999.90;;;23.70;99.90;;;;;;5070018;28;20036;-72
2023/08/14 14:02:29;;;;;;;1999.90;999.90;;;23.70;99.90;;;;;;5070128;28;20078;-74
2023/08/14 14:04:55;;;;;;;1999.90;999.90;;;23.80;99.90;;;;;;5077830;28;20115;-73
2023/08/14 14:07:20;;;;;;;1999.90;999.90;;;24.10;99.90;;;;;;5080775;28;20024;-73
2023/08/14 14:09:46;;;;;;;1999.90;999.90;;;24.30;99.90;;;;;;5079422;28;20572;-73
2023/08/14 14:12:11;;;;;;;1999.90;999.90;;;24.60;99.90;;;;;;5073456;28;20497;-74
2023/08/14 14:14:37;;;;;;;1999.90;999.90;;;24.60;99.90;;;;;;5072669;28;20032;-74
2023/08/14 14:17:03;;;;;;;1999.90;999.90;;;24.70;99.90;;;;;;5073424;28;20082;-74
2023/08/14 14:19:29;;;;;;;1999.90;999.90;;;24.80;99.90;;;;;;5068203;28;20064;-73
2023/08/14 14:21:56;;;;;;;1999.90;999.90;;;25.10;99.90;;;;;;5079779;28;20032;-73
2023/08/14 14:24:23;;;;;;;1999.90;999.90;;;25.10;99.90;;;;;;5076871;28;20084;-73
2023/08/14 14:26:49;;;;;;;1999.90;999.90;;;24.90;99.90;;;;;;5073892;28;20039;-74
2023/08/14 14:29:15;;;;;;;1999.90;999.90;;;25.00;99.90;;;;;;5074425;28;20028;-73
2023/08/14 14:31:40;;;;;;;1999.90;999.90;;;25.10;99.90;;;;;;5076361;28;20024;-73
2023/08/14 14:34:07;;;;;;;1999.90;999.90;;;25.30;99.90;;;;;;5075253;28;20411;-73
2023/08/14 14:36:33;;;;;;;1999.90;999.90;;;25.80;99.90;;;;;;5075230;28;20554;-73
2023/08/14 14:39:00;;;;;;;1999.90;999.90;;;26.20;99.90;;;;;;5075862;28;20501;-73
2023/08/14 14:41:25;;;;;;;1999.90;999.90;;;26.00;99.90;;;;;;5084178;28;20466;-74
2023/08/14 14:43:51;;;;;;;1999.90;999.90;;;26.30;99.90;;;;;;5088577;28;20116;-73
2023/08/14 14:46:17;;;;;;;1999.90;999.90;;;26.20;99.90;;;;;;5079924;28;20487;-72
2023/08/14 14:48:42;;;;;;;1999.90;999.90;;;26.20;99.90;;;;;;5086762;28;20039;-72
2023/08/14 14:51:08;;;;;;;1999.90;999.90;;;26.10;99.90;;;;;;5081553;28;20048;-72
2023/08/14 14:53:34;;;;;;;1999.90;999.90;;;25.70;99.90;;;;;;5081407;28;20435;-73
2023/08/14 14:55:59;;;;;;;1999.90;999.90;;;25.30;99.90;;;;;;5074983;28;20032;-72
2023/08/14 14:58:25;;;;;;;1999.90;999.90;;;24.90;99.90;;;;;;5073629;28;20395;-72
2023/08/14 15:00:51;;;;;;;1999.90;999.90;;;24.80;99.90;;;;;;5078985;28;20024;-73
2023/08/14 15:03:17;;;;;;;1999.90;999.90;;;25.00;99.90;;;;;;5087231;28;20131;-73
2023/08/14 15:05:47;;;;;;;1999.90;999.90;;;25.00;99.90;;;;;;5089954;28;20016;-73
2023/08/14 15:08:13;;;;;;;1999.90;999.90;;;24.80;99.90;;;;;;5080960;28;20040;-73
2023/08/14 15:10:39;;;;;;;1999.90;999.90;;;24.80;99.90;;;;;;5083301;28;20403;-73
2023/08/14 15:13:04;;;;;;;1999.90;999.90;;;24.80;99.90;;;;;;5081676;28;20036;-73
2023/08/14 15:15:30;;;;;;;1999.90;999.90;;;24.80;99.90;;;;;;5092003;28;20040;-72
2023/08/14 15:17:55;;;;;;;1999.90;999.90;;;24.90;99.90;;;;;;5074158;28;20047;-72
2023/08/14 15:20:21;;;;;;;1999.90;999.90;;;24.80;99.90;;;;;;5072442;28;20494;-72
2023/08/14 15:22:47;;;;;;;1999.90;999.90;;;24.70;99.90;;;;;;5073881;28;20047;-72
2023/08/14 15:25:12;;;;;;;1999.90;999.90;;;24.60;99.90;;;;;;5074146;28;20032;-72
2023/08/14 15:27:38;;;;;;;1999.90;999.90;;;24.40;99.90;;;;;;5074531;28;20029;-72
2023/08/14 15:30:04;;;;;;;1999.90;999.90;;;24.10;99.90;;;;;;5074408;28;20020;-72
2023/08/14 15:32:30;;;;;;;1999.90;999.90;;;24.00;99.90;;;;;;5074781;28;20071;-73
2023/08/14 15:34:56;;;;;;;1999.90;999.90;;;24.10;99.90;;;;;;5074651;28;20052;-73
2023/08/14 15:37:21;;;;;;;1999.90;999.90;;;24.10;99.90;;;;;;5074535;28;20078;-72
2023/08/14 15:39:49;;;;;;;1999.90;999.90;;;23.90;99.90;;;;;;5073454;28;20024;-72
2023/08/14 15:42:15;;;;;;;1999.90;999.90;;;23.90;99.90;;;;;;5074758;28;20044;-72
2023/08/14 15:44:40;;;;;;;1999.90;999.90;;;24.00;99.90;;;;;;5074885;28;20559;-73
2023/08/14 15:47:06;;;;;;;1999.90;999.90;;;24.10;99.90;;;;;;5071883;28;20078;-73
2023/08/14 15:49:31;;;;;;;1999.90;999.90;;;24.10;99.90;;;;;;5074302;28;20052;-73
2023/08/14 15:51:57;;;;;;;1999.90;999.90;;;23.90;99.90;;;;;;5074731;28;20116;-72
2023/08/14 15:54:22;;;;;;;1999.90;999.90;;;23.70;99.90;;;;;;5074773;28;20482;-73
2023/08/14 15:56:48;;;;;;;1999.90;999.90;;;23.60;99.90;;;;;;5074535;28;20028;-72
2023/08/14 15:59:14;;;;;;;1999.90;999.90;;;23.50;99.90;;;;;;5074376;28;20024;-73
2023/08/14 16:01:40;;;;;;;1999.90;999.90;;;23.30;99.90;;;;;;5074220;28;20078;-72
2023/08/14 16:04:05;;;;;;;1999.90;999.90;;;23.00;99.90;;;;;;5074608;28;20075;-72
2023/08/14 16:06:31;;;;;;;1999.90;999.90;;;23.00;99.90;;;;;;5075555;28;20031;-72
2023/08/14 16:08:57;;;;;;;1999.90;999.90;;;22.90;99.90;;;;;;5081930;28;20085;-72
2023/08/14 16:11:22;;;;;;;1999.90;999.90;;;22.80;99.90;;;;;;5081581;28;20099;-72
2023/08/14 16:13:48;;;;;;;1999.90;999.90;;;22.70;99.90;;;;;;5079024;28;20031;-73
2023/08/14 16:16:13;;;;;;;1999.90;999.90;;;22.80;99.90;;;;;;5076826;28;20487;-72
2023/08/14 16:18:39;;;;;;;1999.90;999.90;;;22.90;99.90;;;;;;5083035;28;20108;-72
2023/08/14 16:21:06;;;;;;;1999.90;999.90;;;22.80;99.90;;;;;;5089861;28;20051;-72
2023/08/14 16:23:31;;;;;;;1999.90;999.90;;;22.80;99.90;;;;;;5081331;28;20024;-72
2023/08/14 16:25:57;;;;;;;1999.90;999.90;;;22.70;99.90;;;;;;5090961;28;20371;-72
2023/08/14 16:28:22;;;;;;;1999.90;999.90;;;22.60;99.90;;;;;;5072919;28;20013;-73
2023/08/14 16:30:48;;;;;;;1999.90;999.90;;;22.60;99.90;;;;;;5072746;28;20020;-72
2023/08/14 16:33:14;;;;;;;1999.90;999.90;;;22.60;99.90;;;;;;5071684;28;20574;-72
2023/08/14 16:35:39;;;;;;;1999.90;999.90;;;22.50;99.90;;;;;;5073900;28;20434;-72
2023/08/14 16:38:05;;;;;;;1999.90;999.90;;;22.50;99.90;;;;;;5073539;28;20418;-73
2023/08/14 16:40:32;;;;;;;1999.90;999.90;;;22.50;99.90;;;;;;5072755;28;20055;-73
2023/08/14 16:42:58;;;;;;;1999.90;999.90;;;22.60;99.90;;;;;;5073690;28;20031;-72
2023/08/14 16:45:24;;;;;;;1999.90;999.90;;;22.70;99.90;;;;;;5073736;28;20021;-72
2023/08/14 16:47:49;;;;;;;1999.90;999.90;;;22.70;99.90;;;;;;5072038;28;20020;-72
2023/08/14 16:50:15;;;;;;;1999.90;999.90;;;22.70;99.90;;;;;;5073458;28;20423;-73
2023/08/14 16:52:41;;;;;;;1999.90;999.90;;;22.80;99.90;;;;;;5073658;28;20033;-72
2023/08/14 16:55:07;;;;;;;1999.90;999.90;;;22.80;99.90;;;;;;5072183;28;20488;-72
2023/08/14 16:57:32;;;;;;;1999.90;999.90;;;22.90;99.90;;;;;;5072249;28;20044;-73
2023/08/14 16:59:58;;;;;;;1999.90;999.90;;;23.20;99.90;;;;;;5073414;28;20395;-72
2023/08/14 17:02:23;;;;;;;1999.90;999.90;;;23.20;99.90;;;;;;5073169;28;20101;-72
2023/08/14 17:04:49;;;;;;;1999.90;999.90;;;23.30;99.90;;;;;;5073305;28;20542;-73
2023/08/14 17:07:15;;;;;;;1999.90;999.90;;;23.10;99.90;;;;;;5076707;28;20063;-73
2023/08/14 17:09:40;;;;;;;1999.90;999.90;;;23.00;99.90;;;;;;5083292;28;20028;-72
2023/08/14 17:12:06;;;;;;;1999.90;999.90;;;23.00;99.90;;;;;;5078141;28;20045;-72
2023/08/14 17:14:32;;;;;;;1999.90;999.90;;;23.00;99.90;;;;;;5074420;28;20031;-72
2023/08/14 17:16:57;;;;;;;1999.90;999.90;;;23.00;99.90;;;;;;5073444;28;20024;-72
2023/08/14 17:19:23;;;;;;;1999.90;999.90;;;23.00;99.90;;;;;;5076213;28;20117;-73
2023/08/14 17:21:50;;;;;;;1999.90;999.90;;;22.70;99.90;;;;;;5086195;28;20017;-73
2023/08/14 17:24:15;;;;;;;1999.90;999.90;;;22.60;99.90;;;;;;5071485;28;20060;-72
2023/08/14 17:26:41;;;;;;;1999.90;999.90;;;22.70;99.90;;;;;;5086649;28;20062;-72
2023/08/14 17:29:08;;;;;;;1999.90;999.90;;;22.50;99.90;;;;;;5071671;28;20020;-73
2023/08/14 17:31:34;;;;;;;1999.90;999.90;;;22.50;99.90;;;;;;5073192;28;20024;-73
2023/08/14 17:34:00;;;;;;;1999.90;999.90;;;22.50;99.90;;;;;;5072954;28;20620;-72
2023/08/14 17:36:25;;;;;;;1999.90;999.90;;;22.50;99.90;;;;;;5072782;28;20063;-72
2023/08/14 17:38:51;;;;;;;1999.90;999.90;;;22.50;99.90;;;;;;5072729;28;20032;-72
2023/08/14 17:41:17;;;;;;;1999.90;999.90;;;22.40;99.90;;;;;;5072711;28;20035;-72
2023/08/14 17:43:42;;;;;;;1999.90;999.90;;;22.40;99.90;;;;;;5071466;28;20032;-73
2023/08/14 17:46:08;;;;;;;1999.90;999.90;;;22.40;99.90;;;;;;5071554;28;20031;-72
2023/08/14 17:48:33;;;;;;;1999.90;999.90;;;22.40;99.90;;;;;;5072509;28;20066;-73
2023/08/14 17:50:59;;;;;;;1999.90;999.90;;;22.50;99.90;;;;;;5072796;28;20044;-72
2023/08/14 17:53:25;;;;;;;1999.90;999.90;;;22.50;99.90;;;;;;5072515;28;20085;-72
2023/08/14 17:55:50;;;;;;;1999.90;999.90;;;22.40;99.90;;;;;;5072681;28;20028;-73
2023/08/14 17:58:16;;;;;;;1999.90;999.90;;;22.50;99.90;;;;;;5071358;28;20085;-73